Terminal Aerodrome Forecast
Issued by NWS Duluth, MN

Home | Current Version | Previous Version | Text Only | Print | Product List | Glossary On
Versions: 1 2 3 4 5 6 7 8 9 10 11 12 13 14 15 16 17 18 19 20 21 22 23 24
000
FTUS43 KDLH 190400 AAA
TAFINL
TAF AMD
KINL 190401Z 1904/1924 13004KT P6SM OVC016
     FM191300 15004KT 6SM BR OVC012
     FM191800 16006KT P6SM OVC014=

USA.gov is the U.S. government's official web portal to all federal, state and local government web resources and services.